Time;durP1;ratioP1;P1;durP2;ratioP2;P2;SDS_P1;SDS_P2;PMS_P1;PMS_P2;Temp;Humidity;BMP_temperature;BMP_pressure;BME280_temperature;BME280_humidity;BME280_pressure;Samples;Min_cycle;Max_cycle;Signal;HPM_P1;HPM_P2
2022/10/19 00:02:22;;;;;;;;;;;;;;;;;;;;;
2022/10/19 00:05:13;;;;;;;21.90;12.60;;;;;;;12.58;74.92;101167.36;108951;1272;23030;-84
2022/10/19 00:07:55;;;;;;;17.00;13.30;;;;;;;12.53;75.01;101163.67;108923;1272;21963;-83
2022/10/19 00:11:12;;;;;;;14.60;12.90;;;;;;;12.47;74.96;101167.02;109137;1272;23600;-84
2022/10/19 00:14:13;;;;;;;;;;;;;;;;;;;;;
2022/10/19 00:17:35;;;;;;;22.70;17.00;;;;;;;12.39;75.24;101170.08;109019;1279;22578;-86
2022/10/19 00:20:39;;;;;;;18.20;16.40;;;;;;;12.35;75.39;101166.89;108703;1279;23549;-83
2022/10/19 00:23:19;;;;;;;18.70;14.60;;;;;;;12.38;75.50;101166.60;108513;1279;24296;-83
2022/10/19 00:26:01;;;;;;;17.70;15.30;;;;;;;12.39;75.48;101166.05;108510;1281;21954;-84
2022/10/19 00:28:46;;;;;;;20.90;17.80;;;;;;;12.40;75.63;101160.80;108505;1279;21918;-84
2022/10/19 00:31:39;;;;;;;19.10;14.40;;;;;;;12.37;75.53;101160.17;108483;1279;23701;-82
2022/10/19 00:34:26;;;;;;;18.00;15.10;;;;;;;12.35;75.44;101160.94;108478;1275;21921;-82
2022/10/19 00:37:05;;;;;;;18.30;13.70;;;;;;;12.32;75.41;101158.24;108815;1275;21934;-83
2022/10/19 00:39:49;;;;;;;15.30;12.70;;;;;;;12.30;75.47;101154.64;108820;1275;23008;-82
2022/10/19 00:42:33;;;;;;;17.60;13.70;;;;;;;12.28;75.50;101148.23;108406;1280;22421;-82
2022/10/19 00:45:27;;;;;;;17.00;15.10;;;;;;;12.24;75.48;101148.91;108547;1280;23581;-85
2022/10/19 00:48:12;;;;;;;17.60;15.40;;;;;;;12.19;75.37;101146.96;108611;1280;23774;-84
2022/10/19 00:51:00;;;;;;;;;;;;;;;;;;;;;
2022/10/19 00:53:40;;;;;;;16.70;14.10;;;;;;;12.12;75.22;101139.70;108522;1279;21917;-83
2022/10/19 00:56:16;;;;;;;15.00;13.50;;;;;;;12.11;75.29;101141.98;108439;1279;21917;-82
2022/10/19 00:58:59;;;;;;;17.20;13.40;;;;;;;12.10;75.51;101140.11;108544;1279;23055;-82
2022/10/19 01:02:11;;;;;;;14.90;13.20;;;;;;;12.05;75.56;101132.73;108601;1280;21930;-82
2022/10/19 01:05:44;;;;;;;;;;;;;;;;;;;;;
2022/10/19 01:08:42;;;;;;;16.90;13.30;;;;;;;12.00;75.61;101129.08;108259;1283;21941;-87
2022/10/19 01:11:44;;;;;;;16.30;13.60;;;;;;;11.95;75.57;101129.24;108174;1284;22121;-85
2022/10/19 01:15:05;;;;;;;;;;;;;;;;;;;;;
2022/10/19 01:18:28;;;;;;;21.20;15.60;;;;;;;11.84;75.78;101134.06;108411;1285;21931;-86
2022/10/19 01:21:22;;;;;;;16.10;14.50;;;;;;;11.82;75.84;101130.64;108479;1281;22726;-84
2022/10/19 01:24:46;;;;;;;16.40;14.40;;;;;;;11.81;75.93;101127.89;108246;1281;22806;-82
2022/10/19 01:27:31;;;;;;;24.20;14.80;;;;;;;11.79;75.91;101125.52;108235;1277;21933;-82
2022/10/19 01:34:45;;;;;;;17.20;15.00;;;;;;;11.70;76.14;101125.41;108614;1276;21946;-82
2022/10/19 01:38:21;;;;;;;23.40;16.40;;;;;;;11.65;76.17;101129.04;108387;1283;22607;-83
2022/10/19 01:41:15;;;;;;;19.50;16.90;;;;;;;11.66;76.32;101125.36;108419;1279;23157;-83
2022/10/19 01:44:03;;;;;;;22.50;19.30;;;;;;;11.68;76.39;101121.98;108384;1281;21937;-84
2022/10/19 01:46:48;;;;;;;22.60;20.30;;;;;;;11.70;76.45;101125.94;108384;1281;21938;-85
2022/10/19 01:50:09;;;;;;;25.10;22.80;;;;;;;11.71;76.56;101122.07;108722;1279;21938;-84
2022/10/19 01:53:20;;;;;;;23.40;21.00;;;;;;;11.73;76.61;101120.79;108504;1280;21921;-86
2022/10/19 01:56:07;;;;;;;25.90;23.20;;;;;;;11.74;76.68;101119.18;108878;1275;21953;-83
2022/10/19 01:59:12;;;;;;;27.20;24.60;;;;;;;11.76;76.71;101122.45;108633;1280;21950;-84
2022/10/19 02:01:54;;;;;;;25.10;22.70;;;;;;;11.79;76.71;101121.14;108579;1280;21946;-84
2022/10/19 02:04:35;;;;;;;25.50;22.90;;;;;;;11.83;76.70;101118.23;108414;1280;21941;-83
2022/10/19 02:07:23;;;;;;;26.00;23.50;;;;;;;11.82;76.64;101120.71;108349;1280;22681;-84
2022/10/19 02:10:01;;;;;;;25.80;23.20;;;;;;;11.80;76.57;101116.77;108047;1285;21942;-84
2022/10/19 02:12:32;;;;;;;24.20;22.10;;;;;;;11.80;76.59;101114.14;107975;1285;23698;-83
2022/10/19 02:15:27;;;;;;;27.00;23.90;;;;;;;11.80;76.77;101112.91;107978;1285;23744;-83
2022/10/19 02:18:14;;;;;;;26.10;23.70;;;;;;;11.80;76.74;101115.89;108342;1280;21956;-83
2022/10/19 02:21:02;;;;;;;26.20;23.50;;;;;;;11.79;76.78;101115.39;108367;1280;21949;-82
2022/10/19 02:24:03;;;;;;;25.20;22.40;;;;;;;11.79;76.92;101115.55;108480;1280;24276;-82
2022/10/19 02:26:38;;;;;;;24.50;22.20;;;;;;;11.81;76.80;101113.39;108341;1280;22217;-82
2022/10/19 02:29:24;;;;;;;;;;;;;;;;;;;;;
2022/10/19 02:32:13;;;;;;;24.80;22.50;;;;;;;11.81;76.76;101109.93;108457;1280;23084;-82
2022/10/19 02:35:04;;;;;;;;;;;;;;;;;;;;;
2022/10/19 02:38:16;;;;;;;26.10;23.60;;;;;;;11.81;76.98;101107.13;108259;1285;21965;-83
2022/10/19 02:41:46;;;;;;;24.40;22.00;;;;;;;11.80;76.87;101102.98;107793;1291;21927;-83
2022/10/19 02:45:02;;;;;;;28.70;25.50;;;;;;;11.78;76.89;101100.96;107908;1289;21949;-84
2022/10/19 02:48:04;;;;;;;;;;;;;;;;;;;;;
2022/10/19 02:50:52;;;;;;;27.30;24.20;;;;;;;11.80;76.99;101095.67;107583;1291;23628;-83
2022/10/19 02:54:19;;;;;;;27.30;24.10;;;;;;;11.79;77.03;101094.80;106881;1297;21959;-85
2022/10/19 02:57:06;;;;;;;28.80;25.30;;;;;;;11.81;76.96;101092.83;107288;1295;23628;-85
2022/10/19 03:00:22;;;;;;;;;;;;;;;;;;;;;
2022/10/19 03:03:49;;;;;;;;;;;;;;;;;;;;;
2022/10/19 03:06:52;;;;;;;26.20;23.60;;;;;;;11.79;76.80;101093.40;108303;1286;21976;-85
2022/10/19 03:09:33;;;;;;;27.20;24.40;;;;;;;11.81;76.80;101091.42;107664;1286;22086;-83
2022/10/19 03:12:06;;;;;;;24.70;21.60;;;;;;;11.83;76.70;101084.05;108062;1280;23635;-84
2022/10/19 03:14:48;;;;;;;26.00;22.00;;;;;;;11.83;76.68;101080.72;108192;1283;23068;-84
2022/10/19 03:17:38;;;;;;;30.00;23.20;;;;;;;11.81;76.49;101073.64;108189;1283;21958;-86
2022/10/19 03:20:45;;;;;;;25.30;22.30;;;;;;;11.77;76.61;101076.56;107989;1283;23856;-83
2022/10/19 03:23:54;;;;;;;23.80;21.70;;;;;;;11.82;76.64;101082.17;108194;1283;21942;-83
2022/10/19 03:27:10;;;;;;;;;;;;;;;;;;;;;
2022/10/19 03:30:24;;;;;;;;;;;;;;;;;;;;;
2022/10/19 03:33:43;;;;;;;;;;;;;;;;;;;;;
2022/10/19 03:37:14;;;;;;;;;;;;;;;;;;;;;
2022/10/19 03:40:35;;;;;;;23.80;19.80;;;;;;;11.78;76.72;101070.80;107944;1289;21948;-85
2022/10/19 03:43:40;;;;;;;;;;;;;;;;;;;;;
2022/10/19 03:46:48;;;;;;;24.30;20.90;;;;;;;11.80;76.64;101080.82;108168;1289;22343;-85
2022/10/19 03:50:09;;;;;;;;;;;;;;;;;;;;;
2022/10/19 03:53:36;;;;;;;25.20;22.70;;;;;;;11.79;76.65;101077.37;108338;1282;21962;-84
2022/10/19 03:56:47;;;;;;;;;;;;;;;;;;;;;
2022/10/19 04:00:17;;;;;;;23.60;21.20;;;;;;;11.82;76.70;101083.90;108222;1276;24520;-83
2022/10/19 04:03:19;;;;;;;;;;;;;;;;;;;;;
2022/10/19 04:06:28;;;;;;;;;;;;;;;;;;;;;
2022/10/19 04:09:19;;;;;;;22.70;18.70;;;;;;;11.86;76.62;101090.92;108126;1285;23788;-84
2022/10/19 04:12:51;;;;;;;;;;;;;;;;;;;;;
2022/10/19 04:16:01;;;;;;;25.80;21.20;;;;;;;11.87;76.56;101086.89;108561;1282;22657;-86
2022/10/19 04:18:59;;;;;;;25.60;19.90;;;;;;;11.85;76.53;101082.77;108793;1278;23017;-85
2022/10/19 04:22:03;;;;;;;;;;;;;;;;;;;;;
2022/10/19 04:25:11;;;;;;;;;;;;;;;;;;;;;
2022/10/19 04:28:38;;;;;;;26.30;18.40;;;;;;;11.89;76.34;101077.95;108781;1278;23682;-84
2022/10/19 04:31:46;;;;;;;22.00;17.10;;;;;;;11.88;76.23;101074.66;108824;1274;21896;-85
2022/10/19 04:34:50;;;;;;;22.40;17.40;;;;;;;11.88;76.26;101077.44;108875;1274;21906;-84
2022/10/19 04:38:02;;;;;;;19.20;15.70;;;;;;;11.90;76.24;101078.96;108407;1280;23677;-84
2022/10/19 04:40:50;;;;;;;23.60;15.90;;;;;;;11.94;76.17;101080.60;108450;1279;22061;-84
2022/10/19 04:43:56;;;;;;;;;;;;;;;;;;;;;
2022/10/19 04:50:53;;;;;;;21.70;13.20;;;;;;;11.94;75.84;101081.11;108588;1280;21968;-84
2022/10/19 04:53:57;;;;;;;;;;;;;;;;;;;;;
2022/10/19 04:57:34;;;;;;;19.60;14.10;;;;;;;11.94;75.74;101080.08;108560;1278;22313;-85
2022/10/19 05:00:53;;;;;;;16.70;14.20;;;;;;;11.91;75.65;101083.83;108783;1279;21969;-86
2022/10/19 05:04:06;;;;;;;19.70;14.50;;;;;;;11.90;75.51;101080.71;108374;1282;21955;-86
2022/10/19 05:06:59;;;;;;;;;;;;;;;;;;;;;
2022/10/19 05:10:10;;;;;;;21.20;18.90;;;;;;;11.92;75.35;101080.84;107853;1289;23704;-83
2022/10/19 05:13:18;;;;;;;;;;;;;;;;;;;;;
2022/10/19 05:16:40;;;;;;;33.00;23.60;;;;;;;11.89;75.26;101078.29;107785;1289;21954;-84
2022/10/19 05:20:11;;;;;;;;;;;;;;;;;;;;;
2022/10/19 05:23:26;;;;;;;34.80;26.60;;;;;;;11.84;75.18;101079.66;107954;1288;21957;-82
2022/10/19 05:26:37;;;;;;;;;;;;;;;;;;;;;
2022/10/19 05:30:00;;;;;;;28.10;21.30;;;;;;;11.82;75.05;101079.02;108708;1278;21942;-81
2022/10/19 05:32:48;;;;;;;19.40;13.80;;;;;;;11.82;74.97;101077.99;108606;1278;21950;-82
2022/10/19 05:35:48;;;;;;;23.40;12.20;;;;;;;11.80;74.81;101081.02;108201;1283;21974;-83
2022/10/19 05:39:29;;;;;;;;;;;;;;;;;;;;;
2022/10/19 05:42:16;;;;;;;16.00;9.70;;;;;;;11.76;74.76;101080.77;108675;1279;21952;-83
2022/10/19 05:44:59;;;;;;;18.20;10.80;;;;;;;11.79;74.73;101084.52;108455;1280;23613;-80
2022/10/19 05:47:33;;;;;;;15.60;10.20;;;;;;;11.81;74.59;101086.02;108442;1266;21951;-82
2022/10/19 05:50:07;;;;;;;18.20;10.40;;;;;;;11.81;74.40;101085.33;108455;1281;21948;-81
2022/10/19 05:52:46;;;;;;;19.50;11.70;;;;;;;11.82;74.28;101088.95;108576;1275;22497;-82
2022/10/19 05:55:57;;;;;;;17.90;12.70;;;;;;;11.80;74.14;101094.61;108977;1273;21965;-83
2022/10/19 05:59:08;;;;;;;;;;;;;;;;;;;;;
2022/10/19 06:02:13;;;;;;;15.80;11.80;;;;;;;11.71;74.45;101094.51;108915;1279;21946;-87
2022/10/19 06:05:20;;;;;;;;;;;;;;;;;;;;;
2022/10/19 06:08:09;;;;;;;15.00;9.20;;;;;;;11.78;74.12;101100.43;108788;1279;22183;-85
2022/10/19 06:11:36;;;;;;;16.10;8.80;;;;;;;11.84;73.95;101104.08;108835;1280;23761;-87
2022/10/19 06:14:37;;;;;;;14.90;9.10;;;;;;;11.83;73.98;101106.36;108688;1280;22010;-86
2022/10/19 06:17:15;;;;;;;17.80;8.20;;;;;;;11.85;73.74;101100.91;108435;1280;21943;-85
2022/10/19 06:21:04;;;;;;;11.30;8.00;;;;;;;11.85;73.78;101105.09;108469;1284;21952;-86
2022/10/19 06:24:05;;;;;;;14.30;6.60;;;;;;;11.88;73.69;101108.32;108285;1286;22713;-87
2022/10/19 06:26:45;;;;;;;15.80;6.70;;;;;;;11.92;73.56;101107.67;108446;1286;21949;-85
2022/10/19 06:30:02;;;;;;;14.70;7.40;;;;;;;11.94;73.40;101110.25;108256;1283;21950;-85
2022/10/19 06:32:57;;;;;;;17.70;7.20;;;;;;;11.95;73.25;101106.02;108309;1283;22405;-86
2022/10/19 06:36:26;;;;;;;13.90;7.40;;;;;;;11.95;73.19;101104.28;107921;1289;21933;-85
2022/10/19 06:39:07;;;;;;;11.20;6.20;;;;;;;11.96;72.98;101111.23;107944;1287;21948;-87
2022/10/19 06:42:11;;;;;;;12.10;6.80;;;;;;;11.93;72.87;101109.41;108477;1288;21922;-87
2022/10/19 06:44:56;;;;;;;13.10;6.60;;;;;;;11.96;72.88;101112.45;108175;1288;21966;-83
2022/10/19 06:47:37;;;;;;;12.10;6.00;;;;;;;12.03;73.07;101122.36;107950;1289;22376;-81
2022/10/19 06:50:23;;;;;;;13.30;5.80;;;;;;;12.10;72.92;101127.70;107346;1295;23701;-85
2022/10/19 06:53:34;;;;;;;;;;;;;;;;;;;;;
2022/10/19 06:56:48;;;;;;;12.00;5.50;;;;;;;12.14;72.59;101138.94;107739;1286;22888;-85
2022/10/19 06:59:39;;;;;;;9.50;5.10;;;;;;;12.16;72.35;101137.29;108153;1280;21984;-85
2022/10/19 07:02:24;;;;;;;12.80;5.20;;;;;;;12.21;72.12;101138.34;108581;1276;21934;-86
2022/10/19 07:05:09;;;;;;;9.40;5.30;;;;;;;12.26;72.05;101142.91;108624;1280;23798;-82
2022/10/19 07:08:22;;;;;;;9.90;5.40;;;;;;;12.31;71.82;101141.52;108576;1275;21953;-85
2022/10/19 07:11:38;;;;;;;7.60;4.30;;;;;;;12.34;71.65;101141.26;108821;1275;21936;-84
2022/10/19 07:15:42;;;;;;;;;;;;;;;;;;;;;
2022/10/19 07:18:50;;;;;;;;;;;;;;;;;;;;;
2022/10/19 07:22:15;;;;;;;9.20;4.00;;;;;;;12.47;70.99;101144.83;108253;1280;23146;-84
2022/10/19 07:25:36;;;;;;;11.30;4.20;;;;;;;12.53;70.94;101145.88;108260;1280;21938;-83
2022/10/19 07:29:16;;;;;;;;;;;;;;;;;;;;;
2022/10/19 07:32:39;;;;;;;;;;;;;;;;;;;;;
2022/10/19 07:35:54;;;;;;;14.50;5.40;;;;;;;12.78;70.33;101149.03;108455;1280;23073;-83
2022/10/19 07:39:23;;;;;;;12.70;4.10;;;;;;;12.85;69.94;101153.34;108467;1274;22075;-85
2022/10/19 07:42:42;;;;;;;;;;;;;;;;;;;;;
2022/10/19 07:45:49;;;;;;;14.20;4.00;;;;;;;12.99;69.58;101157.05;108769;1275;21940;-84
2022/10/19 07:49:00;;;;;;;;;;;;;;;;;;;;;
2022/10/19 07:51:55;;;;;;;;;;;;;;;;;;;;;
2022/10/19 07:54:35;;;;;;;11.40;3.90;;;;;;;13.40;68.99;101154.89;108882;1275;21954;-84
2022/10/19 08:01:22;;;;;;;11.60;4.90;;;;;;;13.53;67.61;101154.27;108877;1275;21948;-79
2022/10/19 08:04:18;;;;;;;8.60;3.80;;;;;;;13.60;67.58;101159.95;108229;1280;23897;-83
2022/10/19 08:07:48;;;;;;;12.50;5.40;;;;;;;13.62;67.05;101163.40;108380;1280;22020;-83
2022/10/19 08:11:30;;;;;;;8.20;4.20;;;;;;;13.59;66.66;101163.83;108212;1284;21956;-83
2022/10/19 08:14:46;;;;;;;10.70;5.40;;;;;;;13.58;66.39;101162.99;108237;1286;23109;-83
2022/10/19 08:18:02;;;;;;;;;;;;;;;;;;;;;
2022/10/19 08:22:13;;;;;;;;;;;;;;;;;;;;;
2022/10/19 08:29:49;;;;;;;;;;;;;;;;;;;;;
2022/10/19 08:32:33;;;;;;;9.70;5.00;;;;;;;13.61;65.84;101161.47;106266;1301;21991;-83
2022/10/19 08:35:23;;;;;;;9.30;5.30;;;;;;;13.72;65.80;101162.51;106617;1300;21969;-82
2022/10/19 08:38:40;;;;;;;;;;;;;;;;;;;;;
2022/10/19 08:41:32;;;;;;;10.80;3.90;;;;;;;13.81;65.34;101164.22;106948;1295;23737;-83
2022/10/19 08:45:44;;;;;;;9.30;4.90;;;;;;;13.85;65.03;101162.66;108042;1292;21984;-83
2022/10/19 08:48:32;;;;;;;7.50;3.20;;;;;;;13.86;65.12;101164.38;106874;1298;21961;-83
2022/10/19 08:51:17;;;;;;;13.40;4.20;;;;;;;13.91;64.55;101159.14;106708;1298;21957;-83
2022/10/19 08:54:15;;;;;;;10.90;4.30;;;;;;;13.95;64.48;101158.27;106565;1298;22850;-83
2022/10/19 08:57:36;;;;;;;;;;;;;;;;;;;;;
2022/10/19 09:00:48;;;;;;;9.60;3.70;;;;;;;14.00;64.12;101154.77;107873;1286;21963;-83
2022/10/19 09:04:02;;;;;;;;;;;;;;;;;;;;;
2022/10/19 09:07:36;;;;;;;5.80;2.90;;;;;;;13.92;64.06;101163.48;107494;1295;23244;-85
2022/10/19 09:10:24;;;;;;;;;;;;;;;;;;;;;
2022/10/19 09:13:50;;;;;;;11.70;2.50;;;;;;;13.86;63.61;101170.86;107506;1294;21995;-82
2022/10/19 09:17:24;;;;;;;;;;;;;;;;;;;;;
2022/10/19 09:20:24;;;;;;;9.20;3.90;;;;;;;13.88;63.83;101172.38;106834;1301;21963;-83
2022/10/19 09:23:25;;;;;;;;;;;;;;;;;;;;;
2022/10/19 09:26:40;;;;;;;5.70;2.80;;;;;;;13.99;63.43;101176.67;107076;1295;22312;-84
2022/10/19 09:30:02;;;;;;;6.70;3.00;;;;;;;14.01;63.21;101180.10;107149;1295;21974;-83
2022/10/19 09:33:21;;;;;;;4.10;2.00;;;;;;;13.99;62.88;101185.40;106147;1295;1665499;-83
2022/10/19 09:36:51;;;;;;;5.70;3.20;;;;;;;13.93;62.80;101184.57;107960;1283;22163;-83
2022/10/19 09:39:50;;;;;;;6.20;2.50;;;;;;;13.90;62.91;101185.04;108481;1283;23347;-83
2022/10/19 09:42:51;;;;;;;;;;;;;;;;;;;;;
2022/10/19 09:46:03;;;;;;;8.10;2.80;;;;;;;13.93;62.87;101186.18;108755;1275;21933;-83
2022/10/19 09:49:04;;;;;;;4.90;3.10;;;;;;;13.96;63.07;101194.79;108815;1274;23085;-83
2022/10/19 09:51:58;;;;;;;9.30;3.90;;;;;;;14.04;63.16;101196.79;108627;1275;23036;-83
2022/10/19 09:54:42;;;;;;;16.50;4.30;;;;;;;14.08;62.99;101198.73;108893;1275;21948;-83
2022/10/19 09:57:25;;;;;;;12.10;3.60;;;;;;;14.08;62.87;101202.73;108929;1274;22069;-82
2022/10/19 10:00:03;;;;;;;5.80;2.80;;;;;;;14.12;62.92;101199.96;108902;1275;23107;-82
2022/10/19 10:02:47;;;;;;;6.60;2.50;;;;;;;14.14;62.70;101200.61;108838;1275;23047;-81
2022/10/19 10:05:17;;;;;;;7.80;2.70;;;;;;;14.01;62.31;101201.80;108036;1280;21968;-76
2022/10/19 10:07:47;;;;;;;9.40;3.60;;;;;;;13.93;62.50;101200.71;108141;1280;22152;-76
2022/10/19 10:10:52;;;;;;;8.20;3.30;;;;;;;13.85;62.53;101201.69;108180;1280;21987;-77
2022/10/19 10:13:48;;;;;;;9.00;3.80;;;;;;;13.70;62.63;101202.79;108182;1280;24453;-76
2022/10/19 10:16:32;;;;;;;4.90;2.30;;;;;;;13.57;62.74;101213.05;108105;1280;21940;-76
2022/10/19 10:19:24;;;;;;;;;;;;;;;;;;;;;
2022/10/19 10:21:59;;;;;;;5.30;2.90;;;;;;;13.31;63.72;101214.86;108028;1280;22405;-79
2022/10/19 10:24:52;;;;;;;8.00;4.40;;;;;;;13.30;64.75;101218.55;108503;1274;21942;-77
2022/10/19 10:27:53;;;;;;;9.20;3.80;;;;;;;13.36;65.58;101214.34;107955;1283;24402;-77
2022/10/19 10:30:47;;;;;;;;;;;;;;;;;;;;;
2022/10/19 10:33:40;;;;;;;7.10;3.60;;;;;;;13.75;66.77;101212.04;108601;1283;23720;-82
2022/10/19 10:36:30;;;;;;;11.70;3.80;;;;;;;14.08;66.86;101213.77;109368;1283;21958;-89
2022/10/19 10:39:07;;;;;;;5.10;3.10;;;;;;;14.23;65.68;101212.64;109214;1280;21943;-88
2022/10/19 10:41:54;;;;;;;5.50;3.10;;;;;;;14.21;64.95;101214.98;109067;1281;24688;-88
2022/10/19 10:44:33;;;;;;;3.00;2.20;;;;;;;14.16;64.39;101216.08;108951;1282;21956;-86
2022/10/19 10:47:18;;;;;;;3.90;2.00;;;;;;;14.00;64.02;101209.17;109152;1275;22018;-87
2022/10/19 10:50:36;;;;;;;7.00;2.80;;;;;;;13.86;63.97;101212.87;108981;1274;23668;-87
2022/10/19 10:53:47;;;;;;;9.50;2.30;;;;;;;13.70;63.63;101209.09;108946;1275;21925;-84
2022/10/19 10:56:32;;;;;;;8.70;3.30;;;;;;;13.54;63.77;101212.46;108465;1280;21928;-82
2022/10/19 10:59:22;;;;;;;7.70;3.10;;;;;;;13.49;63.97;101211.23;108071;1284;23691;-83
2022/10/19 11:02:17;;;;;;;5.10;3.60;;;;;;;13.47;64.15;101207.13;108249;1284;22417;-84
2022/10/19 11:05:35;;;;;;;5.90;4.10;;;;;;;13.44;64.26;101204.08;108239;1283;21958;-84
2022/10/19 11:08:17;;;;;;;7.70;3.80;;;;;;;13.46;64.49;101203.48;108273;1280;23680;-84
2022/10/19 11:10:59;;;;;;;6.40;2.70;;;;;;;13.46;64.32;101206.27;107872;1289;22110;-84
2022/10/19 11:13:54;;;;;;;7.00;3.30;;;;;;;13.46;64.40;101206.46;107711;1291;22894;-82
2022/10/19 11:16:42;;;;;;;6.30;3.30;;;;;;;13.46;64.41;101205.39;108279;1280;23606;-84
2022/10/19 11:19:32;;;;;;;8.50;4.80;;;;;;;13.46;64.32;101207.48;108759;1280;22076;-87
2022/10/19 11:22:32;;;;;;;5.30;2.80;;;;;;;13.49;64.57;101204.44;108813;1278;21959;-87
2022/10/19 11:25:29;;;;;;;5.30;2.30;;;;;;;13.51;64.45;101204.52;108649;1280;22695;-87
2022/10/19 11:28:42;;;;;;;7.30;3.80;;;;;;;13.53;64.52;101207.25;108673;1277;21955;-89
2022/10/19 11:32:04;;;;;;;8.90;3.70;;;;;;;13.54;64.42;101213.34;109739;1275;21951;-88
2022/10/19 11:35:58;;;;;;;;;;;;;;;;;;;;;
2022/10/19 11:38:57;;;;;;;5.90;3.00;;;;;;;13.62;64.03;101217.24;109755;1275;23782;-88
2022/10/19 11:42:22;;;;;;;7.20;3.10;;;;;;;13.62;63.85;101215.81;109375;1278;21936;-85
2022/10/19 11:45:38;;;;;;;3.90;2.60;;;;;;;13.64;63.66;101213.13;108867;1273;21982;-87
2022/10/19 11:48:40;;;;;;;5.70;2.50;;;;;;;13.65;63.62;101212.41;109333;1281;21963;-86
2022/10/19 11:51:58;;;;;;;4.40;2.10;;;;;;;13.67;63.58;101210.23;108957;1280;21937;-86
2022/10/19 11:54:57;;;;;;;4.20;2.40;;;;;;;13.66;63.35;101207.83;108845;1286;21967;-87
2022/10/19 11:58:06;;;;;;;8.30;2.80;;;;;;;13.71;63.41;101211.29;108643;1286;22001;-86
2022/10/19 12:01:02;;;;;;;6.20;2.30;;;;;;;13.80;63.27;101208.33;108415;1286;22909;-86
2022/10/19 12:04:19;;;;;;;4.60;2.30;;;;;;;13.88;63.12;101204.22;108851;1286;22407;-85
2022/10/19 12:07:13;;;;;;;;;;;;;;;;;;;;;
2022/10/19 12:10:33;;;;;;;7.60;3.00;;;;;;;13.86;62.54;101202.35;108935;1286;21972;-88
2022/10/19 12:13:32;;;;;;;3.40;1.90;;;;;;;13.83;62.47;101195.30;108418;1286;21989;-82
2022/10/19 12:21:15;;;;;;;;;;;;;;;;;;;;;
2022/10/19 12:24:57;;;;;;;;;;;;;;;;;;;;;
2022/10/19 12:28:05;;;;;;;;;;;;;;;;;;;;;
2022/10/19 12:31:03;;;;;;;;;;;;;;;;;;;;;
2022/10/19 12:34:35;;;;;;;8.60;7.40;;;;;;;13.29;63.06;101228.37;108107;1286;22785;-78
2022/10/19 12:37:58;;;;;;;;;;;;;;;;;;;;;
2022/10/19 12:42:09;;;;;;;;;;;;;;;;;;;;;
2022/10/19 12:45:17;;;;;;;;;;;;;;;;;;;;;
2022/10/19 12:48:35;;;;;;;;;;;;;;;;;;;;;
2022/10/19 12:51:45;;;;;;;3.00;2.00;;;;;;;12.44;65.18;101234.83;106920;1295;23742;-83
2022/10/19 12:55:21;;;;;;;7.40;4.50;;;;;;;12.42;65.72;101233.86;107349;1295;23645;-85
2022/10/19 12:58:18;;;;;;;;;;;;;;;12.35;66.00;101232.52;106595;1294;23687;-85
2022/10/19 13:01:40;;;;;;;2.70;1.70;;;;;;;12.20;66.60;101234.52;106951;1299;22399;-86
2022/10/19 13:04:37;;;;;;;3.00;1.70;;;;;;;12.22;66.95;101235.34;106978;1301;23701;-85
2022/10/19 13:07:25;;;;;;;6.50;5.10;;;;;;;12.23;67.17;101231.65;107285;1294;24317;-86
2022/10/19 13:10:08;;;;;;;3.50;2.50;;;;;;;12.30;67.49;101232.48;107439;1294;21970;-80
2022/10/19 13:13:02;;;;;;;4.90;2.50;;;;;;;12.37;67.74;101232.59;107330;1292;22008;-84
2022/10/19 13:16:32;;;;;;;5.80;2.60;;;;;;;12.44;67.81;101236.05;107376;1294;21959;-84
2022/10/19 13:19:53;;;;;;;3.10;1.70;;;;;;;12.49;67.72;101238.17;107351;1294;22055;-85
2022/10/19 13:22:48;;;;;;;4.60;2.60;;;;;;;12.49;67.85;101233.46;107038;1298;22037;-84
2022/10/19 13:26:41;;;;;;;5.00;2.80;;;;;;;12.54;67.74;101241.34;106841;1297;21989;-82
2022/10/19 13:29:43;;;;;;;6.80;3.80;;;;;;;12.52;67.67;101239.98;107769;1287;21961;-82
2022/10/19 13:32:46;;;;;;;6.40;3.50;;;;;;;12.56;68.06;101237.09;107740;1289;21943;-86
2022/10/19 13:36:01;;;;;;;7.00;4.10;;;;;;;12.61;68.01;101241.09;107655;1289;21967;-80
2022/10/19 13:38:55;;;;;;;7.90;6.00;;;;;;;12.62;67.85;101246.14;108069;1286;21957;-83
2022/10/19 13:41:57;;;;;;;6.60;4.20;;;;;;;12.60;67.96;101243.05;107573;1292;21958;-79
2022/10/19 13:44:34;;;;;;;6.40;4.40;;;;;;;12.55;67.81;101249.16;107068;1294;21964;-83
2022/10/19 13:47:46;;;;;;;7.40;5.00;;;;;;;12.54;67.95;101249.90;107422;1294;23137;-82
2022/10/19 13:50:57;;;;;;;;;;;;;;;;;;;;;
2022/10/19 13:54:08;;;;;;;7.30;3.70;;;;;;;12.58;68.39;101242.60;107799;1289;22503;-83
2022/10/19 13:57:16;;;;;;;3.50;2.70;;;;;;;12.63;68.52;101238.59;107299;1295;22007;-82
2022/10/19 14:00:34;;;;;;;;;;;;;;;;;;;;;
2022/10/19 14:03:48;;;;;;;4.70;3.30;;;;;;;12.59;68.19;101236.80;107290;1294;23693;-83
2022/10/19 14:06:53;;;;;;;6.20;3.20;;;;;;;12.58;68.18;101243.66;107402;1292;21959;-82
2022/10/19 14:09:47;;;;;;;;;;;;;;;;;;;;;
2022/10/19 14:12:39;;;;;;;8.90;4.60;;;;;;;12.51;68.22;101248.94;107909;1283;21949;-82
2022/10/19 14:15:20;;;;;;;8.50;4.90;;;;;;;12.49;68.14;101245.67;107655;1289;23552;-82
2022/10/19 14:18:31;;;;;;;5.80;3.60;;;;;;;12.48;68.10;101245.88;107873;1289;21978;-82
2022/10/19 14:21:31;;;;;;;6.90;4.10;;;;;;;12.45;68.38;101247.72;107300;1294;23193;-83
2022/10/19 14:24:04;;;;;;;6.50;3.50;;;;;;;12.45;68.35;101243.88;107327;1295;21964;-82
2022/10/19 14:26:39;;;;;;;8.50;4.40;;;;;;;12.45;68.33;101241.27;107602;1289;23142;-83
2022/10/19 14:29:57;;;;;;;7.50;3.20;;;;;;;12.42;68.31;101245.20;108272;1283;22937;-83
2022/10/19 14:32:35;;;;;;;7.30;3.90;;;;;;;12.38;68.30;101247.58;108248;1283;21947;-82
2022/10/19 14:35:35;;;;;;;8.70;4.00;;;;;;;12.38;68.29;101240.27;108281;1283;23859;-83
2022/10/19 14:38:39;;;;;;;5.10;3.00;;;;;;;12.35;68.43;101243.86;108480;1276;21926;-83
2022/10/19 14:41:47;;;;;;;4.10;2.60;;;;;;;12.35;68.44;101243.84;108777;1281;22000;-83
2022/10/19 14:44:36;;;;;;;4.40;3.00;;;;;;;12.35;68.32;101248.58;108445;1283;21939;-82
2022/10/19 14:47:26;;;;;;;;;;;;;;;12.29;68.09;101244.91;108588;1280;22825;-79
2022/10/19 14:50:25;;;;;;;4.50;2.20;;;;;;;12.17;68.13;101243.71;108509;1281;21945;-80
2022/10/19 14:54:22;;;;;;;4.70;1.90;;;;;;;12.15;67.99;101242.55;108360;1281;21998;-80
2022/10/19 14:57:07;;;;;;;5.00;2.40;;;;;;;12.10;67.69;101241.30;108006;1284;21948;-80
2022/10/19 14:59:54;;;;;;;4.00;2.50;;;;;;;12.10;67.45;101246.88;107950;1289;23590;-81
2022/10/19 15:02:48;;;;;;;8.10;6.00;;;;;;;12.09;67.15;101253.52;107882;1289;22719;-80
2022/10/19 15:05:48;;;;;;;9.30;5.70;;;;;;;12.07;66.75;101253.25;108191;1283;22890;-80
2022/10/19 15:08:51;;;;;;;7.00;4.00;;;;;;;12.05;66.30;101259.23;108014;1283;21936;-81
2022/10/19 15:11:35;;;;;;;5.90;4.10;;;;;;;12.00;65.95;101263.20;107798;1283;23053;-80
2022/10/19 15:14:19;;;;;;;7.10;4.90;;;;;;;11.98;65.73;101261.02;107981;1285;21943;-80
2022/10/19 15:17:05;;;;;;;11.50;7.60;;;;;;;11.92;65.40;101266.25;108286;1283;21977;-80
2022/10/19 15:20:01;;;;;;;10.30;7.40;;;;;;;11.85;65.13;101264.84;108171;1285;22520;-80
2022/10/19 15:22:40;;;;;;;9.70;6.90;;;;;;;11.81;64.85;101266.70;108205;1286;21999;-80
2022/10/19 15:25:32;;;;;;;6.00;4.30;;;;;;;11.77;64.64;101264.89;108330;1284;21941;-80
2022/10/19 15:28:38;;;;;;;;;;;;;;;11.71;64.52;101268.02;108199;1283;22023;-80
2022/10/19 15:31:30;;;;;;;7.20;3.90;;;;;;;11.56;64.50;101267.21;108341;1283;24187;-80
2022/10/19 15:34:31;;;;;;;12.10;5.20;;;;;;;11.49;64.54;101268.27;108191;1279;23045;-79
2022/10/19 15:37:04;;;;;;;10.40;8.10;;;;;;;11.43;64.37;101267.91;108743;1271;21954;-81
2022/10/19 15:40:22;;;;;;;9.10;6.90;;;;;;;11.37;64.36;101270.16;108767;1274;22923;-79
2022/10/19 15:43:36;;;;;;;10.70;7.40;;;;;;;11.29;64.41;101271.41;108345;1283;21961;-80
2022/10/19 15:47:05;;;;;;;11.10;6.80;;;;;;;11.23;64.51;101276.45;108067;1282;23328;-80
2022/10/19 15:49:43;;;;;;;11.80;6.30;;;;;;;11.18;64.54;101281.29;107706;1291;23085;-79
2022/10/19 15:52:24;;;;;;;8.60;5.50;;;;;;;11.15;64.54;101287.44;107812;1289;23631;-77
2022/10/19 15:55:06;;;;;;;7.40;5.20;;;;;;;11.13;64.57;101290.30;107704;1287;24381;-77
2022/10/19 15:57:51;;;;;;;;;;;;;;;;;;;;;
2022/10/19 16:00:49;;;;;;;10.60;5.70;;;;;;;11.05;64.61;101295.88;108030;1287;23077;-79